Time;durP1;ratioP1;P1;durP2;ratioP2;P2;SDS_P1;SDS_P2;PMS_P1;PMS_P2;Temp;Humidity;BMP_temperature;BMP_pressure;BME280_temperature;BME280_humidity;BME280_pressure;Samples;Min_cycle;Max_cycle;Signal;HPM_P1;HPM_P2
2021/05/06 00:04:39;;;;;;;3.13;1.47;;;;;;;3.91;79.42;99983.41;4980046;28;20347;-71
2021/05/06 00:10:34;;;;;;;1.80;1.17;;;;;;;3.78;79.80;99977.47;4983016;28;20582;-72
2021/05/06 00:29:58;;;;;;;5.70;1.30;;;;;;;3.56;81.93;99989.69;4984070;28;20654;-71
2021/05/06 00:32:26;;;;;;;4.23;1.10;;;;;;;3.44;82.60;99985.47;4979058;28;20237;-71
2021/05/06 00:34:52;;;;;;;1.50;1.10;;;;;;;3.41;82.74;99990.66;4978578;28;20670;-71
2021/05/06 00:37:19;;;;;;;3.00;1.50;;;;;;;3.35;83.05;99988.13;4978850;28;20244;-71
2021/05/06 00:39:49;;;;;;;1.97;1.40;;;;;;;3.31;83.56;99992.44;4982822;28;20208;-71
2021/05/06 00:42:39;;;;;;;2.47;1.30;;;;;;;3.25;83.63;99991.63;4982841;28;20314;-71
2021/05/06 01:01:59;;;;;;;2.37;1.20;;;;;;;2.99;85.08;99983.19;4983523;28;20229;-71
2021/05/06 01:04:35;;;;;;;1.40;1.30;;;;;;;3.03;84.74;99981.44;4974868;28;20201;-71
2021/05/06 01:07:15;;;;;;;1.93;1.20;;;;;;;3.03;84.67;99981.44;4979710;28;20267;-72
2021/05/06 01:09:45;;;;;;;1.50;1.00;;;;;;;2.98;84.78;99983.19;4983314;28;20224;-71
2021/05/06 01:12:11;;;;;;;1.93;1.20;;;;;;;2.91;85.24;99981.53;4978784;28;20233;-70
2021/05/06 01:14:38;;;;;;;2.47;1.33;;;;;;;2.91;85.06;99974.63;4983109;28;20208;-70
2021/05/06 01:17:04;;;;;;;2.73;1.43;;;;;;;2.95;84.93;99980.63;4982217;28;20233;-71
2021/05/06 01:19:30;;;;;;;3.77;1.50;;;;;;;3.01;84.40;99978.03;4983831;28;20764;-71
2021/05/06 01:21:57;;;;;;;2.30;1.37;;;;;;;2.99;84.38;99980.63;4976680;28;20224;-71
2021/05/06 01:24:25;;;;;;;2.57;1.37;;;;;;;3.00;84.44;99984.88;4982580;28;20699;-71
2021/05/06 01:26:57;;;;;;;4.80;1.70;;;;;;;2.99;84.37;99982.31;4981200;28;20205;-71
2021/05/06 01:29:27;;;;;;;2.03;1.43;;;;;;;2.97;84.29;99984.94;4983101;28;20271;-71
2021/05/06 01:32:00;;;;;;;2.57;1.53;;;;;;;2.98;84.30;99981.47;4983207;28;20221;-71
2021/05/06 01:34:28;;;;;;;3.13;1.43;;;;;;;3.01;84.24;99981.47;4983653;28;20208;-71
2021/05/06 01:36:57;;;;;;;5.10;1.50;;;;;;;2.99;83.89;99988.34;4978972;28;20741;-71
2021/05/06 01:39:51;;;;;;;2.43;1.60;;;;;;;2.95;84.53;99990.94;4977820;28;20922;-71
2021/05/06 01:42:19;;;;;;;2.37;1.60;;;;;;;2.96;83.87;99990.06;4977696;28;20253;-71
2021/05/06 01:45:11;;;;;;;2.60;1.80;;;;;;;2.92;84.24;99990.94;4977592;28;20570;-71
2021/05/06 01:47:40;;;;;;;2.10;1.77;;;;;;;2.95;84.29;99994.34;4973846;28;20285;-71
2021/05/06 01:50:33;;;;;;;2.17;1.50;;;;;;;2.90;84.02;99996.09;4980825;28;20217;-71
2021/05/06 01:58:36;;;;;;;1.53;1.30;;;;;;;2.84;84.19;99986.69;4984851;28;20200;-71
2021/05/06 02:01:05;;;;;;;2.03;1.40;;;;;;;2.84;84.31;99984.09;4995278;28;20218;-71
2021/05/06 02:03:31;;;;;;;2.27;1.70;;;;;;;2.80;84.72;99985.00;4981867;28;20540;-71
2021/05/06 02:05:58;;;;;;;4.10;1.67;;;;;;;2.81;84.41;99980.69;4981649;28;20621;-71
2021/05/06 02:08:25;;;;;;;3.00;1.47;;;;;;;2.78;84.57;99975.56;4983981;28;20421;-71
2021/05/06 02:10:58;;;;;;;3.37;1.60;;;;;;;2.75;84.61;99976.44;4980234;28;20233;-71
2021/05/06 02:13:52;;;;;;;1.83;1.70;;;;;;;2.73;84.41;99973.00;4977835;28;20292;-71
2021/05/06 02:16:21;;;;;;;1.93;1.40;;;;;;;2.69;84.84;99978.16;4979676;28;20222;-71
2021/05/06 02:18:48;;;;;;;2.00;1.47;;;;;;;2.68;84.70;99977.31;4980838;28;20229;-71
2021/05/06 02:21:17;;;;;;;1.80;1.70;;;;;;;2.70;84.20;99973.03;4983636;28;20303;-71
2021/05/06 02:23:44;;;;;;;2.97;1.63;;;;;;;2.68;84.49;99973.91;4983233;28;20856;-71
2021/05/06 02:26:11;;;;;;;2.53;1.80;;;;;;;2.72;84.01;99976.44;4982635;28;20225;-71
2021/05/06 02:28:38;;;;;;;2.03;1.50;;;;;;;2.65;84.44;99975.59;4977694;28;20614;-71
2021/05/06 02:31:04;;;;;;;2.20;1.90;;;;;;;2.63;84.73;99979.06;4982927;28;20240;-71
2021/05/06 02:33:30;;;;;;;2.17;1.83;;;;;;;2.58;84.66;99976.50;4980945;28;20686;-71
2021/05/06 02:35:56;;;;;;;1.93;1.50;;;;;;;2.53;84.92;99974.81;4980264;28;20201;-71
2021/05/06 02:38:22;;;;;;;2.97;1.57;;;;;;;2.51;85.28;99981.69;4982679;28;20207;-70
2021/05/06 02:40:48;;;;;;;4.07;1.90;;;;;;;2.50;85.03;99982.53;4976473;28;20204;-71
2021/05/06 02:43:14;;;;;;;2.43;1.63;;;;;;;2.54;85.05;99976.53;4979596;28;20208;-71
2021/05/06 02:45:40;;;;;;;4.17;2.10;;;;;;;2.53;84.98;99978.22;4975689;28;20200;-71
2021/05/06 02:48:07;;;;;;;2.23;1.60;;;;;;;2.51;85.17;99974.81;4980192;28;20205;-71
2021/05/06 02:50:33;;;;;;;3.10;1.90;;;;;;;2.46;85.28;99982.56;4977918;28;20308;-71
2021/05/06 02:53:02;;;;;;;2.33;1.87;;;;;;;2.45;85.50;99978.25;4973927;28;20594;-71
2021/05/06 02:55:37;;;;;;;1.80;1.70;;;;;;;2.41;85.58;99975.69;4985274;28;20198;-71
2021/05/06 02:58:06;;;;;;;1.93;1.73;;;;;;;2.41;85.58;99976.56;4981199;28;20216;-71
2021/05/06 03:03:14;;;;;;;2.47;2.00;;;;;;;2.39;85.60;99986.03;4972377;28;20209;-71
2021/05/06 03:05:40;;;;;;;5.37;1.87;;;;;;;2.43;85.30;99989.44;4985375;28;20210;-71
2021/05/06 03:08:11;;;;;;;2.67;1.77;;;;;;;2.43;85.23;99992.84;4980402;28;20228;-71
2021/05/06 03:24:21;;;;;;;3.13;2.00;;;;;;;2.16;86.78;99990.34;4951070;28;20208;-71
2021/05/06 03:26:47;;;;;;;3.40;2.10;;;;;;;2.16;86.92;99990.34;4985071;28;20260;-71
2021/05/06 03:29:17;;;;;;;2.40;2.10;;;;;;;2.16;87.00;99995.50;4980342;28;20758;-71
2021/05/06 03:32:01;;;;;;;2.70;2.20;;;;;;;2.12;87.20;99998.94;4975492;28;20237;-71
2021/05/06 03:34:41;;;;;;;2.73;2.03;;;;;;;2.16;87.53;99993.75;4980853;28;20195;-71
2021/05/06 03:42:38;;;;;;;5.07;2.23;;;;;;;2.13;87.77;100000.63;4979529;28;20236;-71
2021/05/06 03:48:36;;;;;;;3.43;2.57;;;;;;;2.14;88.13;99997.22;4977185;28;20191;-71
2021/05/06 04:18:14;;;;;;;6.70;3.60;;;;;;;3.04;85.61;100001.19;4985389;28;20211;-71
2021/05/06 04:26:27;;;;;;;3.67;3.03;;;;;;;3.29;84.62;100011.34;4984703;28;20596;-70
2021/05/06 04:29:39;;;;;;;4.10;3.17;;;;;;;3.31;84.62;100010.47;4985092;28;20201;-71
2021/05/06 04:37:18;;;;;;;4.10;2.70;;;;;;;3.42;84.96;100013.84;4989840;28;20235;-71
2021/05/06 04:39:49;;;;;;;4.13;3.10;;;;;;;3.46;84.91;100014.66;4983868;28;20513;-71
2021/05/06 04:45:34;;;;;;;4.50;2.90;;;;;;;3.64;84.13;100017.97;4986176;28;20205;-71
2021/05/06 04:53:45;;;;;;;2.93;2.43;;;;;;;3.90;83.33;100020.34;4982409;28;20622;-71
2021/05/06 04:56:16;;;;;;;3.57;2.77;;;;;;;3.98;83.31;100034.91;4981907;28;20224;-71
2021/05/06 05:04:12;;;;;;;4.30;3.00;;;;;;;4.24;81.85;100044.16;4981641;28;20681;-71
2021/05/06 05:06:41;;;;;;;3.73;2.67;;;;;;;4.30;81.51;100046.66;4982915;28;20202;-71
2021/05/06 05:09:25;;;;;;;5.37;3.20;;;;;;;4.36;81.40;100040.56;4984289;28;20220;-71
2021/05/06 05:11:54;;;;;;;6.33;3.47;;;;;;;4.44;81.14;100048.25;4977309;28;20237;-71
2021/05/06 05:14:35;;;;;;;3.63;2.77;;;;;;;4.50;80.67;100051.63;4983099;28;20205;-71
2021/05/06 05:25:14;;;;;;;3.27;2.83;;;;;;;4.79;79.37;100055.63;4982677;28;20677;-71
2021/05/06 05:27:40;;;;;;;3.53;2.77;;;;;;;4.86;79.17;100056.41;4980645;28;20197;-71
2021/05/06 05:30:07;;;;;;;4.47;2.90;;;;;;;4.96;79.87;100050.25;4981952;28;20212;-71
2021/05/06 05:32:34;;;;;;;4.27;3.10;;;;;;;5.03;78.56;100062.22;4980378;28;20224;-71
2021/05/06 05:35:02;;;;;;;4.07;3.07;;;;;;;5.10;78.00;100061.28;4980824;28;20228;-72
2021/05/06 05:37:32;;;;;;;3.67;2.80;;;;;;;5.14;78.31;100049.16;4987237;28;20198;-71
2021/05/06 05:40:14;;;;;;;4.03;2.77;;;;;;;5.21;77.98;100055.97;4982309;28;20216;-72
2021/05/06 05:42:51;;;;;;;3.57;3.00;;;;;;;5.29;77.97;100054.13;4977301;28;20213;-71
2021/05/06 05:45:43;;;;;;;3.73;2.77;;;;;;;5.42;78.56;100049.66;4981114;28;20206;-71
2021/05/06 05:56:25;;;;;;;4.17;3.20;;;;;;;5.74;77.22;100048.31;4980275;28;20590;-71
2021/05/06 05:58:53;;;;;;;4.43;2.90;;;;;;;5.75;75.31;100050.03;4979921;28;20244;-71
2021/05/06 06:01:23;;;;;;;3.37;3.07;;;;;;;5.81;75.83;100049.91;4977474;28;20228;-71
2021/05/06 06:03:49;;;;;;;3.47;3.17;;;;;;;5.88;75.38;100048.09;4980576;28;20205;-71
2021/05/06 06:06:15;;;;;;;4.20;2.93;;;;;;;5.95;75.13;100049.69;4980768;28;20233;-71
2021/05/06 06:08:41;;;;;;;3.37;2.83;;;;;;;6.06;75.18;100054.72;4981613;28;20205;-71
2021/05/06 06:11:07;;;;;;;7.23;3.07;;;;;;;6.06;74.55;100045.22;4981309;28;20226;-71
2021/05/06 06:13:33;;;;;;;3.53;2.70;;;;;;;6.13;74.04;100055.50;4980480;28;20204;-71
2021/05/06 06:16:02;;;;;;;4.73;2.97;;;;;;;6.22;74.62;100060.50;4981138;28;20213;-71
2021/05/06 06:18:34;;;;;;;3.57;2.83;;;;;;;6.32;74.42;100051.69;4982425;28;20225;-71
2021/05/06 06:21:04;;;;;;;3.67;3.07;;;;;;;6.41;73.70;100050.69;4982015;28;20209;-71
2021/05/06 06:23:30;;;;;;;5.93;3.53;;;;;;;6.34;73.01;100059.44;4983039;28;20196;-71
2021/05/06 06:25:57;;;;;;;4.20;2.93;;;;;;;6.31;72.93;100052.56;4962047;28;20256;-71
2021/05/06 06:28:23;;;;;;;3.27;2.87;;;;;;;6.37;72.81;100047.28;4978470;28;20217;-71
2021/05/06 06:30:49;;;;;;;5.70;3.23;;;;;;;6.48;73.15;100052.28;4978273;28;20240;-71
2021/05/06 06:33:16;;;;;;;4.17;3.10;;;;;;;6.51;72.33;100044.47;4981887;28;20209;-71
2021/05/06 06:35:42;;;;;;;3.93;3.40;;;;;;;6.66;72.40;100035.53;4978293;28;20224;-71
2021/05/06 06:38:08;;;;;;;3.50;2.97;;;;;;;6.79;72.86;100043.94;4981078;28;20551;-72
2021/05/06 06:40:34;;;;;;;3.87;3.00;;;;;;;6.76;71.59;100050.00;4993054;28;20344;-71
2021/05/06 06:43:00;;;;;;;3.77;3.30;;;;;;;6.83;71.13;100040.38;4979110;28;20221;-71
2021/05/06 06:45:26;;;;;;;5.07;3.13;;;;;;;6.83;71.44;100042.97;4976923;28;20460;-72
2021/05/06 06:47:53;;;;;;;3.23;2.93;;;;;;;6.99;70.32;100044.38;4980011;28;20233;-71
2021/05/06 06:50:20;;;;;;;6.43;3.20;;;;;;;7.12;71.37;100044.94;4979265;28;20931;-71
2021/05/06 06:52:46;;;;;;;4.00;3.00;;;;;;;7.22;72.34;100044.78;4977645;28;20226;-71
2021/05/06 06:55:12;;;;;;;4.60;3.03;;;;;;;7.26;71.30;100047.25;4984954;28;20201;-71
2021/05/06 06:57:38;;;;;;;4.07;2.80;;;;;;;7.37;71.12;100041.84;4979445;28;20271;-71
2021/05/06 07:00:06;;;;;;;3.23;2.70;;;;;;;7.42;69.17;100055.53;4981689;28;20949;-71
2021/05/06 07:02:32;;;;;;;3.73;3.30;;;;;;;7.36;69.33;100056.53;4977365;28;20225;-71
2021/05/06 07:04:58;;;;;;;5.73;3.43;;;;;;;7.23;69.36;100052.53;4977571;28;20209;-71
2021/05/06 07:07:25;;;;;;;3.83;3.07;;;;;;;7.23;69.87;100062.91;4977890;28;20445;-71
2021/05/06 07:09:51;;;;;;;3.90;3.30;;;;;;;7.25;69.22;100057.69;4982990;28;20217;-71
2021/05/06 07:12:17;;;;;;;3.83;3.07;;;;;;;7.14;68.18;100050.09;4977062;28;20760;-71
2021/05/06 07:14:43;;;;;;;4.10;3.40;;;;;;;7.20;67.32;100053.44;4981237;28;20210;-72
2021/05/06 07:17:09;;;;;;;4.33;3.40;;;;;;;7.32;69.44;100054.06;4979019;28;20217;-72
2021/05/06 07:19:35;;;;;;;4.90;3.20;;;;;;;7.29;68.99;100046.34;4981367;28;20222;-71
2021/05/06 07:22:01;;;;;;;5.23;3.20;;;;;;;7.45;69.43;100054.66;4978605;28;20225;-71
2021/05/06 07:24:28;;;;;;;3.33;3.03;;;;;;;7.83;69.05;100043.38;4982473;28;20206;-71
2021/05/06 07:26:54;;;;;;;4.10;3.40;;;;;;;7.73;67.33;100054.84;4979183;28;20214;-71
2021/05/06 07:29:21;;;;;;;4.17;3.40;;;;;;;7.80;68.51;100052.97;4978305;28;20674;-71
2021/05/06 07:31:48;;;;;;;4.13;3.60;;;;;;;7.84;66.28;100045.06;4979803;28;20233;-71
2021/05/06 07:34:14;;;;;;;3.50;3.20;;;;;;;7.87;67.19;100046.75;4976272;28;20204;-71
2021/05/06 07:36:40;;;;;;;4.47;3.00;;;;;;;8.02;67.50;100037.72;4979886;28;20207;-71
2021/05/06 07:39:07;;;;;;;3.80;2.80;;;;;;;8.12;67.57;100047.84;4961126;28;20576;-72
2021/05/06 07:41:33;;;;;;;3.83;2.70;;;;;;;8.21;67.10;100036.34;4976199;28;20243;-71
2021/05/06 07:43:59;;;;;;;3.20;2.87;;;;;;;8.23;65.43;100050.19;4979253;28;20262;-72
2021/05/06 07:46:26;;;;;;;5.13;3.90;;;;;;;8.27;66.94;100044.00;4978079;28;20242;-72
2021/05/06 07:48:52;;;;;;;4.77;3.03;;;;;;;8.39;65.51;100054.97;4978610;28;20809;-71
2021/05/06 07:51:18;;;;;;;6.13;4.27;;;;;;;8.45;64.42;100055.69;4973410;28;20223;-72
2021/05/06 07:53:48;;;;;;;4.03;3.17;;;;;;;8.45;63.91;100045.28;4980005;28;20201;-72
2021/05/06 07:56:14;;;;;;;3.57;3.27;;;;;;;8.38;63.59;100042.88;4977621;28;20212;-71
2021/05/06 07:58:41;;;;;;;4.33;3.10;;;;;;;8.45;65.04;100041.84;4979374;28;20201;-71
2021/05/06 08:01:07;;;;;;;5.30;3.50;;;;;;;8.49;62.85;100046.06;4962813;28;20209;-72
2021/05/06 08:03:33;;;;;;;3.23;2.93;;;;;;;8.62;63.00;100046.56;4978284;28;20216;-72
2021/05/06 08:06:00;;;;;;;3.93;3.10;;;;;;;8.77;64.49;100038.38;4979411;28;20238;-71
2021/05/06 08:08:27;;;;;;;3.30;2.93;;;;;;;9.09;63.23;100040.06;4976552;28;20248;-71
2021/05/06 08:10:55;;;;;;;6.33;2.90;;;;;;;9.37;62.63;100047.03;4973908;28;20228;-72
2021/05/06 08:13:22;;;;;;;3.23;2.60;;;;;;;9.32;62.35;100043.69;4979147;28;20233;-72
2021/05/06 08:15:50;;;;;;;3.00;2.70;;;;;;;9.20;60.04;100052.75;4980891;28;20213;-72
2021/05/06 08:18:16;;;;;;;4.40;2.63;;;;;;;9.21;60.27;100037.97;4980113;28;20572;-72
2021/05/06 08:20:42;;;;;;;3.70;3.00;;;;;;;9.07;61.57;100041.00;4979945;28;20193;-72
2021/05/06 08:23:10;;;;;;;3.00;2.57;;;;;;;9.02;62.27;100037.66;4979145;28;20652;-71
2021/05/06 08:25:37;;;;;;;3.20;2.90;;;;;;;8.93;63.59;100037.94;4971118;28;20205;-71
2021/05/06 08:28:03;;;;;;;2.70;2.50;;;;;;;9.17;64.68;100031.19;4979316;28;20206;-71
2021/05/06 08:30:29;;;;;;;2.90;2.30;;;;;;;9.43;63.58;100033.84;4978753;28;20823;-71
2021/05/06 08:32:56;;;;;;;2.73;2.33;;;;;;;9.62;62.56;100041.94;4980104;28;20272;-72
2021/05/06 08:35:22;;;;;;;3.93;2.20;;;;;;;9.51;61.97;100045.75;4975276;28;20285;-71
2021/05/06 08:37:48;;;;;;;4.23;2.30;;;;;;;9.53;62.83;100043.97;4981530;28;20209;-72
2021/05/06 08:40:14;;;;;;;2.90;2.60;;;;;;;9.55;62.02;100045.63;4983943;28;20251;-72
2021/05/06 08:42:40;;;;;;;4.47;2.73;;;;;;;9.43;62.97;100048.59;4978180;28;20237;-71
2021/05/06 08:45:08;;;;;;;3.10;2.80;;;;;;;9.66;62.75;100048.72;4981194;28;20214;-72
2021/05/06 08:47:34;;;;;;;3.23;2.93;;;;;;;9.96;63.41;100043.44;4981738;28;20682;-72
2021/05/06 08:50:01;;;;;;;2.73;2.53;;;;;;;9.85;61.67;100064.63;4982718;28;20240;-72
2021/05/06 08:52:28;;;;;;;3.07;2.80;;;;;;;9.73;60.52;100056.38;4979330;28;20222;-72
2021/05/06 08:54:56;;;;;;;3.60;2.80;;;;;;;9.58;60.39;100058.53;4980245;28;20215;-72
2021/05/06 08:57:23;;;;;;;3.17;2.90;;;;;;;9.50;60.87;100054.44;4979861;28;20832;-72
2021/05/06 08:59:50;;;;;;;3.47;2.77;;;;;;;9.46;60.01;100048.50;4983447;28;20197;-72
2021/05/06 09:02:17;;;;;;;2.40;2.20;;;;;;;9.55;61.34;100045.63;5002229;28;20249;-72
2021/05/06 09:04:43;;;;;;;3.17;2.87;;;;;;;9.76;61.21;100051.03;4980901;28;20210;-72
2021/05/06 09:07:11;;;;;;;3.50;2.60;;;;;;;10.05;60.69;100042.28;4978918;28;20198;-71
2021/05/06 09:09:43;;;;;;;2.73;2.47;;;;;;;10.55;61.56;100038.88;5000221;28;20206;-72
2021/05/06 09:12:09;;;;;;;3.33;2.80;;;;;;;10.73;60.62;100030.41;4981319;28;20707;-71
2021/05/06 09:14:39;;;;;;;4.83;2.70;;;;;;;10.80;58.38;100036.25;4981637;28;20233;-72
2021/05/06 09:17:07;;;;;;;3.20;2.90;;;;;;;11.14;60.38;100029.78;4981642;28;20224;-72
2021/05/06 09:19:33;;;;;;;2.40;2.20;;;;;;;11.31;58.62;100026.50;4974791;28;20198;-71
2021/05/06 09:22:00;;;;;;;2.43;2.23;;;;;;;10.99;56.16;100028.59;4981595;28;20214;-72
2021/05/06 09:24:35;;;;;;;2.77;1.97;;;;;;;10.77;56.97;100029.38;4982887;28;20213;-72
2021/05/06 09:27:03;;;;;;;3.97;2.30;;;;;;;10.69;57.02;100026.19;4980358;28;20198;-72
2021/05/06 09:29:35;;;;;;;2.17;2.00;;;;;;;11.10;57.15;100021.22;4979815;28;20279;-72
2021/05/06 09:32:14;;;;;;;2.20;2.00;;;;;;;11.39;54.91;100019.25;4980012;28;20305;-72
2021/05/06 09:34:41;;;;;;;4.63;3.27;;;;;;;11.66;54.79;100019.06;4976260;28;20206;-71
2021/05/06 09:37:08;;;;;;;1.93;1.53;;;;;;;12.01;53.44;100025.47;4978329;28;20206;-72
2021/05/06 09:39:36;;;;;;;2.40;2.20;;;;;;;12.26;55.75;100007.03;4981230;28;20339;-72
2021/05/06 09:42:10;;;;;;;4.27;2.47;;;;;;;12.28;54.83;100017.41;4979150;28;20233;-72
2021/05/06 09:44:53;;;;;;;4.50;2.63;;;;;;;11.97;53.88;100013.47;4978677;28;20580;-72
2021/05/06 09:47:19;;;;;;;2.43;1.97;;;;;;;12.13;54.60;100021.50;4980418;28;20234;-72
2021/05/06 09:49:46;;;;;;;1.47;1.37;;;;;;;12.12;51.84;100025.06;4981599;28;20213;-72
2021/05/06 09:52:12;;;;;;;1.70;1.57;;;;;;;11.83;49.55;100027.06;4980238;28;20233;-72
2021/05/06 09:54:47;;;;;;;3.60;1.40;;;;;;;11.95;52.75;100011.84;4978805;28;20303;-71
2021/05/06 09:57:13;;;;;;;1.40;1.13;;;;;;;12.01;50.77;100009.81;4976687;28;20206;-72
2021/05/06 09:59:40;;;;;;;1.50;1.30;;;;;;;12.13;53.44;100005.84;4976602;28;20669;-72
2021/05/06 10:02:08;;;;;;;1.10;1.00;;;;;;;12.02;48.70;100006.28;4980271;28;20272;-72
2021/05/06 10:04:35;;;;;;;4.40;1.00;;;;;;;12.02;50.09;100000.22;4973860;28;20206;-72
2021/05/06 10:07:09;;;;;;;2.20;0.97;;;;;;;12.06;51.67;99991.34;4975660;28;20800;-72
2021/05/06 10:09:50;;;;;;;1.70;1.00;;;;;;;12.10;47.46;100006.81;4977777;28;20208;-71
2021/05/06 10:12:16;;;;;;;2.57;1.10;;;;;;;12.27;46.97;100000.03;4979003;28;20282;-71
2021/05/06 10:14:42;;;;;;;1.80;1.00;;;;;;;11.89;49.67;99989.38;4977258;28;20748;-72
2021/05/06 10:17:09;;;;;;;2.40;1.13;;;;;;;12.04;48.49;99994.00;4984158;28;20222;-72
2021/05/06 10:19:38;;;;;;;3.37;1.30;;;;;;;12.28;48.54;99991.28;4974067;28;20213;-71
2021/05/06 10:22:04;;;;;;;1.30;1.10;;;;;;;11.98;46.35;99994.28;4976996;28;20308;-72
2021/05/06 10:24:30;;;;;;;1.23;1.13;;;;;;;11.40;47.89;99994.84;4976283;28;20714;-72
2021/05/06 10:26:57;;;;;;;3.10;0.80;;;;;;;11.14;48.98;99999.31;4978236;28;20236;-72
2021/05/06 10:29:23;;;;;;;1.00;0.90;;;;;;;10.94;49.68;100005.31;4980773;28;20205;-72
2021/05/06 10:31:49;;;;;;;1.07;1.00;;;;;;;10.64;52.22;99998.59;4981338;28;20220;-72
2021/05/06 10:34:15;;;;;;;1.00;0.90;;;;;;;10.51;52.04;100006.03;4979870;28;20204;-72
2021/05/06 10:36:44;;;;;;;1.30;0.93;;;;;;;10.59;53.63;99999.63;4976480;28;20203;-72
2021/05/06 10:39:11;;;;;;;1.57;1.00;;;;;;;11.06;53.03;99990.94;4978459;28;20208;-72
2021/05/06 10:41:38;;;;;;;1.13;0.80;;;;;;;11.43;50.41;99996.47;4981374;28;20623;-72
2021/05/06 10:44:06;;;;;;;1.43;0.93;;;;;;;11.62;50.43;99991.38;4982872;28;20210;-72
2021/05/06 10:47:00;;;;;;;1.33;0.90;;;;;;;11.36;48.28;99993.25;4978392;28;20204;-72
2021/05/06 10:49:28;;;;;;;1.00;0.90;;;;;;;11.05;49.58;99999.69;4983822;28;20216;-72
2021/05/06 10:52:03;;;;;;;2.30;1.00;;;;;;;10.61;49.94;99991.75;4978315;28;20238;-72
2021/05/06 10:54:36;;;;;;;1.53;0.90;;;;;;;10.63;52.97;99982.13;4976730;28;20203;-72
2021/05/06 10:57:27;;;;;;;1.67;1.00;;;;;;;10.94;53.16;99976.63;4977494;28;20294;-72
2021/05/06 10:59:55;;;;;;;1.20;1.10;;;;;;;11.74;57.67;99968.22;4976138;28;20219;-72
2021/05/06 11:02:48;;;;;;;1.20;1.10;;;;;;;12.01;53.60;99977.59;4979084;28;20359;-72
2021/05/06 11:05:16;;;;;;;2.03;1.20;;;;;;;11.99;54.48;99974.22;4979693;28;20217;-72
2021/05/06 11:07:42;;;;;;;1.73;1.20;;;;;;;12.09;54.98;99968.53;4980952;28;20198;-72
2021/05/06 11:10:09;;;;;;;1.43;1.13;;;;;;;12.15;51.74;99963.97;4978492;28;20230;-72
2021/05/06 11:12:39;;;;;;;1.83;1.20;;;;;;;12.47;51.59;99965.16;4975308;28;20757;-71
2021/05/06 11:15:29;;;;;;;1.13;1.03;;;;;;;12.95;55.20;99944.72;4978625;28;20423;-72
2021/05/06 11:17:56;;;;;;;1.63;1.23;;;;;;;13.16;53.15;99950.69;4978293;28;20219;-72
2021/05/06 11:20:42;;;;;;;1.60;1.10;;;;;;;13.36;49.47;99953.22;4979902;28;20201;-72
2021/05/06 11:23:39;;;;;;;1.33;0.90;;;;;;;13.46;50.59;99950.19;4977853;28;20220;-72
2021/05/06 11:26:11;;;;;;;0.80;0.80;;;;;;;12.82;46.85;99960.09;4971918;28;20568;-71
2021/05/06 11:28:55;;;;;;;1.03;0.80;;;;;;;12.55;49.57;99952.59;4980308;28;20205;-72
2021/05/06 11:31:48;;;;;;;1.20;0.97;;;;;;;12.82;48.98;99947.03;4977562;28;20594;-72
2021/05/06 11:34:36;;;;;;;3.10;0.63;;;;;;;12.97;48.92;99950.72;4978627;28;20201;-72
2021/05/06 11:37:14;;;;;;;1.03;0.50;;;;;;;13.26;48.58;99944.94;4979618;28;20193;-72
2021/05/06 11:39:52;;;;;;;0.60;0.60;;;;;;;13.40;50.40;99952.16;4979329;28;20308;-72
2021/05/06 11:42:19;;;;;;;0.77;0.70;;;;;;;13.54;46.78;99968.97;4977082;28;21079;-72
2021/05/06 11:45:13;;;;;;;2.47;0.80;;;;;;;13.22;45.18;99963.47;4977496;28;20709;-72
2021/05/06 11:47:41;;;;;;;0.70;0.60;;;;;;;13.43;46.65;99940.69;4979158;28;20321;-72
2021/05/06 11:50:23;;;;;;;0.60;0.60;;;;;;;13.43;46.41;99957.22;4980066;28;20234;-72
2021/05/06 11:52:49;;;;;;;0.77;0.70;;;;;;;12.74;46.50;99952.63;4978054;28;20256;-72
2021/05/06 11:55:36;;;;;;;2.43;1.17;;;;;;;12.26;49.04;99948.66;4979518;28;20717;-72
2021/05/06 11:58:02;;;;;;;1.37;0.93;;;;;;;11.90;49.57;99951.91;4978147;28;20203;-72
2021/05/06 12:00:29;;;;;;;2.50;1.60;;;;;;;11.81;50.36;99960.16;4977316;28;20197;-72
2021/05/06 12:03:04;;;;;;;1.60;1.50;;;;;;;11.45;50.40;99964.19;4975768;28;20610;-72
2021/05/06 12:05:50;;;;;;;2.53;1.50;;;;;;;10.90;58.03;99979.38;4978726;28;20271;-71
2021/05/06 12:08:17;;;;;;;1.77;1.10;;;;;;;10.16;63.53;99966.38;4978646;28;21332;-72
2021/05/06 12:10:43;;;;;;;2.10;1.30;;;;;;;10.20;63.88;99944.50;4983458;28;20224;-72
2021/05/06 12:13:10;;;;;;;1.87;0.80;;;;;;;10.39;63.73;99942.16;4981741;28;20336;-71
2021/05/06 12:15:36;;;;;;;0.83;0.80;;;;;;;10.47;62.55;99940.13;4989524;28;20283;-72
2021/05/06 12:18:21;;;;;;;1.43;0.90;;;;;;;11.13;65.10;99931.53;4982521;28;20293;-72
2021/05/06 12:20:52;;;;;;;0.90;0.90;;;;;;;11.62;61.57;99937.38;4979745;28;20681;-72
2021/05/06 12:23:18;;;;;;;1.33;0.80;;;;;;;11.68;59.56;99933.66;4982076;28;20231;-72
2021/05/06 12:25:44;;;;;;;0.90;0.90;;;;;;;11.91;57.83;99930.16;4980877;28;20213;-72
2021/05/06 12:28:10;;;;;;;1.17;0.93;;;;;;;12.05;54.98;99937.41;4981745;28;20238;-71
2021/05/06 12:30:36;;;;;;;1.17;1.00;;;;;;;12.03;55.88;99926.13;4987083;28;20221;-71
2021/05/06 12:33:02;;;;;;;1.67;1.20;;;;;;;12.07;55.40;99917.28;4983756;28;20323;-72
2021/05/06 12:35:29;;;;;;;2.30;1.10;;;;;;;12.16;52.99;99926.47;4982629;28;20564;-72
2021/05/06 12:37:55;;;;;;;1.00;0.90;;;;;;;12.08;52.79;99924.19;4981967;28;20896;-72
2021/05/06 12:40:26;;;;;;;1.27;1.00;;;;;;;12.15;53.27;99916.91;4981847;28;20217;-72
2021/05/06 12:42:52;;;;;;;2.90;2.03;;;;;;;12.21;53.40;99919.28;4983295;28;20585;-72
2021/05/06 12:45:27;;;;;;;2.60;1.97;;;;;;;12.27;54.16;99906.75;4981134;28;20199;-72
2021/05/06 12:47:53;;;;;;;1.27;1.00;;;;;;;12.12;51.16;99910.91;4980765;28;20291;-72
2021/05/06 12:50:22;;;;;;;1.00;0.90;;;;;;;12.17;50.07;99902.03;4980482;28;20311;-72
2021/05/06 12:52:52;;;;;;;1.70;1.00;;;;;;;12.47;50.29;99905.88;4982651;28;20674;-71
2021/05/06 12:55:20;;;;;;;2.00;1.07;;;;;;;12.55;48.83;99908.16;4981810;28;20201;-72
2021/05/06 12:58:03;;;;;;;1.27;0.90;;;;;;;12.72;48.52;99904.75;4980864;28;20959;-72
2021/05/06 13:00:32;;;;;;;2.47;1.10;;;;;;;12.70;48.50;99911.84;4979416;28;20598;-72
2021/05/06 13:03:01;;;;;;;1.50;1.10;;;;;;;11.94;51.70;99930.00;4983356;28;20609;-71
2021/05/06 13:05:29;;;;;;;1.73;1.07;;;;;;;11.40;52.26;99933.94;4975408;28;20213;-72
2021/05/06 13:08:48;;;;;;;1.20;1.03;;;;;;;11.18;55.78;99925.22;4967105;23;20459;-75
2021/05/06 13:11:20;;;;;;;1.30;1.00;;;;;;;11.45;57.21;99926.78;4980440;23;20234;-73
2021/05/06 13:13:48;;;;;;;1.30;1.20;;;;;;;11.46;57.55;99931.94;4978545;28;20214;-72
2021/05/06 13:16:16;;;;;;;1.70;1.10;;;;;;;11.35;57.71;99931.53;4975816;28;20275;-73
2021/05/06 13:18:57;;;;;;;2.67;1.10;;;;;;;10.89;58.25;99925.53;4976348;28;22495;-73
2021/05/06 13:21:24;;;;;;;1.30;1.17;;;;;;;10.90;58.38;99922.00;4955957;28;20223;-73
2021/05/06 13:23:52;;;;;;;2.27;1.10;;;;;;;10.95;58.97;99922.69;4976059;28;20200;-72
2021/05/06 13:26:31;;;;;;;1.70;1.10;;;;;;;10.70;59.38;99913.19;4976856;28;20838;-73
2021/05/06 13:29:00;;;;;;;1.53;1.13;;;;;;;10.78;59.48;99913.75;4973273;28;20305;-73
2021/05/06 13:31:32;;;;;;;1.87;1.10;;;;;;;11.06;58.42;99904.00;4977440;28;20252;-72
2021/05/06 13:34:11;;;;;;;1.47;0.80;;;;;;;10.75;57.30;99897.38;4980241;28;20251;-72
2021/05/06 13:36:37;;;;;;;1.07;0.97;;;;;;;10.70;57.64;99904.53;4981256;28;20220;-72
2021/05/06 13:39:05;;;;;;;2.47;1.10;;;;;;;10.95;57.50;99896.59;4984274;28;20304;-72
2021/05/06 13:41:33;;;;;;;2.47;1.20;;;;;;;11.10;57.39;99903.81;4977046;28;20772;-73
2021/05/06 13:44:01;;;;;;;1.37;1.10;;;;;;;11.15;56.49;99901.88;4976698;28;20711;-72
2021/05/06 13:46:30;;;;;;;3.73;1.50;;;;;;;10.91;55.22;99906.31;4979025;28;20204;-72
2021/05/06 13:48:56;;;;;;;1.00;0.83;;;;;;;10.76;56.19;99906.88;4975950;28;20314;-73
2021/05/06 13:51:23;;;;;;;1.00;0.90;;;;;;;10.73;57.73;99910.47;4981355;28;20315;-73
2021/05/06 13:53:51;;;;;;;3.50;1.10;;;;;;;10.63;56.97;99918.72;4977028;28;20214;-73
2021/05/06 13:56:17;;;;;;;1.80;0.97;;;;;;;10.54;58.56;99920.75;4980856;28;20205;-73
2021/05/06 13:58:44;;;;;;;1.97;1.20;;;;;;;10.46;61.58;99909.75;4977453;28;20199;-72
2021/05/06 14:01:12;;;;;;;1.30;1.20;;;;;;;10.37;64.35;99899.66;4977403;28;20706;-73
2021/05/06 14:03:39;;;;;;;1.60;1.10;;;;;;;10.16;65.04;99902.09;4977698;28;20292;-72
2021/05/06 14:06:07;;;;;;;4.20;2.60;;;;;;;9.78;66.68;99904.31;4978984;28;20806;-73
2021/05/06 14:08:33;;;;;;;3.17;2.40;;;;;;;9.63;68.19;99895.25;4979103;28;21462;-72